Time;durP1;ratioP1;P1;durP2;ratioP2;P2;SDS_P1;SDS_P2;PMS_P1;PMS_P2;Temp;Humidity;BMP_temperature;BMP_pressure;BME280_temperature;BME280_humidity;BME280_pressure;Samples;Min_cycle;Max_cycle;Signal;HPM_P1;HPM_P2
2023/04/15 00:00:07;;;;;;;4.63;3.43;;;15.20;43.50;;;;;;5008091;28;20614;-51
2023/04/15 00:02:32;;;;;;;5.60;3.80;;;15.10;43.50;;;;;;5004528;28;20445;-50
2023/04/15 00:04:58;;;;;;;5.77;3.80;;;15.00;43.50;;;;;;5004556;28;20444;-50
2023/04/15 00:07:23;;;;;;;3.70;3.30;;;15.00;43.60;;;;;;5001702;28;20186;-53
2023/04/15 00:09:49;;;;;;;6.67;3.50;;;14.80;43.80;;;;;;5004130;28;20198;-51
2023/04/15 00:12:15;;;;;;;6.80;4.00;;;14.70;44.20;;;;;;5010967;28;20194;-50
2023/04/15 00:14:40;;;;;;;4.20;3.80;;;14.50;44.50;;;;;;5013509;28;20194;-49
2023/04/15 00:17:06;;;;;;;9.30;3.73;;;14.40;44.80;;;;;;5002149;28;20197;-51
2023/04/15 00:19:32;;;;;;;4.70;4.13;;;14.20;45.20;;;;;;5013903;28;20264;-51
2023/04/15 00:21:58;;;;;;;5.07;3.10;;;14.10;45.60;;;;;;5013526;28;20529;-50
2023/04/15 00:24:24;;;;;;;5.93;3.33;;;14.00;46.30;;;;;;5013361;28;20204;-52
2023/04/15 00:26:49;;;;;;;4.57;3.93;;;14.00;46.90;;;;;;5007623;28;20508;-50
2023/04/15 00:29:15;;;;;;;5.37;3.90;;;14.10;46.30;;;;;;5012023;28;20205;-52
2023/04/15 00:31:41;;;;;;;4.60;3.67;;;14.10;45.90;;;;;;5012652;28;20221;-50
2023/04/15 00:34:07;;;;;;;5.00;3.67;;;14.10;45.80;;;;;;5006763;28;20193;-50
2023/04/15 00:36:33;;;;;;;5.70;3.70;;;14.10;45.70;;;;;;5011405;28;20797;-50
2023/04/15 00:38:59;;;;;;;5.73;3.23;;;14.10;45.90;;;;;;5011227;28;20798;-49
2023/04/15 00:41:25;;;;;;;4.80;3.40;;;14.10;46.00;;;;;;5011153;28;20446;-53
2023/04/15 00:43:51;;;;;;;3.90;3.00;;;14.00;45.80;;;;;;5007141;28;20241;-52
2023/04/15 00:46:19;;;;;;;7.50;3.97;;;14.00;45.80;;;;;;5008923;28;20201;-49
2023/04/15 00:48:46;;;;;;;5.17;3.60;;;14.00;46.00;;;;;;5003861;28;20944;-51
2023/04/15 00:51:12;;;;;;;3.03;2.83;;;13.90;46.40;;;;;;5000706;28;20445;-49
2023/04/15 00:53:38;;;;;;;4.67;3.73;;;13.90;46.80;;;;;;4999034;28;20903;-53
2023/04/15 00:56:04;;;;;;;4.73;3.40;;;13.90;47.10;;;;;;5006000;28;20441;-52
2023/04/15 00:58:30;;;;;;;4.67;3.70;;;13.90;47.30;;;;;;5009593;28;20221;-49
2023/04/15 01:00:56;;;;;;;5.80;3.87;;;13.90;47.60;;;;;;5007200;28;20953;-50
2023/04/15 01:03:22;;;;;;;5.80;4.60;;;13.90;47.60;;;;;;5008679;28;20266;-50
2023/04/15 01:05:48;;;;;;;6.37;4.50;;;13.80;47.60;;;;;;5006978;28;20864;-51
2023/04/15 01:08:14;;;;;;;6.93;4.17;;;13.70;48.20;;;;;;4999853;28;20197;-48
2023/04/15 01:10:39;;;;;;;9.30;3.73;;;13.80;48.10;;;;;;5005185;28;20457;-49
2023/04/15 01:13:05;;;;;;;8.60;3.40;;;13.80;47.80;;;;;;5008791;28;20232;-48
2023/04/15 01:15:31;;;;;;;5.60;3.77;;;13.80;47.90;;;;;;5007810;28;20564;-51
2023/04/15 01:18:01;;;;;;;4.70;4.00;;;13.70;48.10;;;;;;5006710;28;20194;-48
2023/04/15 01:20:27;;;;;;;6.63;4.17;;;13.70;48.00;;;;;;5006124;28;20495;-51
2023/04/15 01:22:54;;;;;;;10.63;3.83;;;13.70;48.30;;;;;;5010166;28;20460;-48
2023/04/15 01:25:33;;;;;;;4.83;3.60;;;13.70;48.30;;;;;;4996049;28;20468;-51
2023/04/15 01:27:59;;;;;;;7.77;3.73;;;13.80;48.20;;;;;;5008576;28;20522;-49
2023/04/15 01:30:26;;;;;;;6.63;4.10;;;13.90;47.70;;;;;;5008310;28;20514;-48
2023/04/15 01:32:52;;;;;;;7.17;4.13;;;13.90;47.20;;;;;;5006584;28;20445;-49
2023/04/15 01:35:18;;;;;;;5.43;4.00;;;14.00;47.20;;;;;;4999507;28;20982;-55
2023/04/15 01:37:44;;;;;;;8.03;4.13;;;14.00;47.10;;;;;;5004315;28;20461;-49
2023/04/15 01:40:10;;;;;;;5.80;3.87;;;14.10;46.90;;;;;;5004107;28;20485;-48
2023/04/15 01:42:36;;;;;;;5.97;4.47;;;14.10;46.90;;;;;;5008223;28;20204;-48
2023/04/15 01:45:02;;;;;;;5.33;3.67;;;14.10;46.90;;;;;;5006932;28;20491;-50
2023/04/15 01:47:28;;;;;;;3.90;3.50;;;14.10;46.40;;;;;;5002320;28;20460;-49
2023/04/15 01:49:53;;;;;;;5.40;4.53;;;14.10;46.30;;;;;;4995800;28;20445;-54
2023/04/15 01:52:19;;;;;;;4.50;3.93;;;13.90;46.40;;;;;;5003671;28;20649;-48
2023/04/15 01:54:45;;;;;;;9.30;3.83;;;13.80;46.70;;;;;;5004240;28;20241;-51
2023/04/15 01:57:11;;;;;;;5.40;3.57;;;13.60;47.10;;;;;;4993183;28;20205;-48
2023/04/15 01:59:37;;;;;;;4.67;4.17;;;13.50;47.40;;;;;;5006606;28;20542;-51
2023/04/15 02:02:03;;;;;;;5.73;3.67;;;13.40;47.80;;;;;;5003082;28;20205;-49
2023/04/15 02:04:29;;;;;;;6.57;3.90;;;13.30;48.40;;;;;;5007022;28;20477;-51
2023/04/15 02:06:54;;;;;;;4.60;3.83;;;13.30;48.10;;;;;;5004857;28;20453;-48
2023/04/15 02:09:20;;;;;;;4.17;3.50;;;13.40;48.20;;;;;;5006481;28;20194;-48
2023/04/15 02:11:45;;;;;;;6.10;3.57;;;13.50;47.90;;;;;;5009896;28;20273;-49
2023/04/15 02:14:11;;;;;;;3.60;3.30;;;13.50;47.30;;;;;;5002027;28;20641;-48
2023/04/15 02:16:37;;;;;;;3.73;3.43;;;13.50;47.50;;;;;;5007807;28;20186;-49
2023/04/15 02:19:03;;;;;;;5.00;3.70;;;13.50;47.20;;;;;;5010819;28;20236;-49
2023/04/15 02:21:29;;;;;;;4.70;4.00;;;13.50;46.90;;;;;;5010942;28;20194;-55
2023/04/15 02:23:55;;;;;;;4.17;3.77;;;13.60;46.90;;;;;;5005040;28;20554;-52
2023/04/15 02:26:21;;;;;;;7.20;4.07;;;13.60;46.60;;;;;;5004745;28;20432;-50
2023/04/15 02:28:48;;;;;;;5.17;3.27;;;13.40;46.50;;;;;;5005225;28;20861;-50
2023/04/15 02:31:13;;;;;;;4.50;3.63;;;13.20;46.60;;;;;;4991879;28;20445;-55
2023/04/15 02:33:39;;;;;;;4.47;3.50;;;13.00;47.00;;;;;;5008963;28;21157;-52
2023/04/15 02:36:07;;;;;;;4.93;3.70;;;12.90;47.50;;;;;;5009189;28;20228;-52
2023/04/15 02:38:33;;;;;;;5.87;4.33;;;12.70;48.00;;;;;;5008473;28;20660;-53
2023/04/15 02:40:58;;;;;;;5.90;3.80;;;12.50;48.30;;;;;;5009428;28;20492;-53
2023/04/15 02:43:24;;;;;;;5.67;3.70;;;12.40;48.60;;;;;;5008068;28;20202;-52
2023/04/15 02:45:50;;;;;;;5.10;4.00;;;12.20;49.10;;;;;;5006457;28;20189;-51
2023/04/15 02:48:18;;;;;;;4.33;3.73;;;12.10;49.30;;;;;;5001862;28;20226;-53
2023/04/15 02:50:44;;;;;;;5.20;4.10;;;11.90;49.60;;;;;;5006084;28;20532;-52
2023/04/15 02:53:10;;;;;;;4.70;3.70;;;11.90;49.90;;;;;;5006399;28;20784;-52
2023/04/15 02:55:36;;;;;;;8.37;4.03;;;11.70;50.30;;;;;;5009357;28;20470;-54
2023/04/15 02:58:02;;;;;;;4.10;3.20;;;11.70;50.70;;;;;;4997255;28;20213;-52
2023/04/15 03:00:27;;;;;;;5.47;3.57;;;11.60;51.40;;;;;;5007497;28;20713;-52
2023/04/15 03:03:00;;;;;;;3.87;3.37;;;11.50;52.50;;;;;;4998944;28;20283;-54
2023/04/15 03:05:25;;;;;;;8.00;4.00;;;11.60;51.50;;;;;;5006594;28;20194;-52
2023/04/15 03:07:51;;;;;;;3.60;3.30;;;11.80;52.60;;;;;;5008985;28;20441;-52
2023/04/15 03:10:17;;;;;;;5.73;3.50;;;11.50;51.60;;;;;;5004263;28;20198;-53
2023/04/15 03:12:42;;;;;;;5.07;3.33;;;11.50;51.70;;;;;;5003377;28;20190;-53
2023/04/15 03:15:09;;;;;;;3.47;3.07;;;11.40;51.70;;;;;;5002476;28;20217;-53
2023/04/15 03:17:35;;;;;;;5.70;3.43;;;11.40;52.10;;;;;;5003746;28;20376;-51
2023/04/15 03:20:02;;;;;;;4.40;3.60;;;11.30;52.30;;;;;;4994987;28;20520;-52
2023/04/15 03:22:28;;;;;;;4.37;3.23;;;11.20;52.70;;;;;;5001116;28;20951;-52
2023/04/15 03:24:53;;;;;;;3.93;2.90;;;11.20;52.90;;;;;;5012658;28;20449;-52
2023/04/15 03:27:19;;;;;;;5.60;3.80;;;11.20;52.80;;;;;;5006804;28;20182;-52
2023/04/15 03:29:45;;;;;;;3.63;3.10;;;11.20;52.90;;;;;;5010826;28;20615;-53
2023/04/15 03:32:11;;;;;;;4.30;3.23;;;11.20;52.90;;;;;;5003421;28;20563;-52
2023/04/15 03:34:37;;;;;;;5.70;4.10;;;11.20;52.90;;;;;;5008708;28;20182;-54
2023/04/15 03:37:04;;;;;;;4.77;3.20;;;11.20;52.90;;;;;;5011532;28;20449;-52
2023/04/15 03:39:30;;;;;;;5.70;3.10;;;11.20;53.10;;;;;;5007008;28;20688;-54
2023/04/15 03:41:56;;;;;;;6.60;3.70;;;11.00;53.50;;;;;;5009835;28;20460;-52
2023/04/15 03:44:22;;;;;;;3.87;3.47;;;10.80;54.10;;;;;;5002495;28;20437;-52
2023/04/15 03:46:47;;;;;;;7.27;3.60;;;10.40;54.70;;;;;;5007545;28;20859;-52
2023/04/15 03:49:13;;;;;;;5.10;3.13;;;10.20;55.50;;;;;;5007202;28;20209;-51
2023/04/15 03:51:38;;;;;;;4.23;3.20;;;10.10;55.60;;;;;;5003838;28;20205;-52
2023/04/15 03:54:04;;;;;;;6.20;4.10;;;10.20;55.70;;;;;;4998282;28;20241;-51
2023/04/15 03:56:30;;;;;;;3.70;3.40;;;10.40;55.40;;;;;;5005598;28;20194;-53
2023/04/15 03:58:55;;;;;;;5.03;3.17;;;10.40;55.30;;;;;;5006159;28;20236;-51
2023/04/15 04:01:21;;;;;;;4.57;3.57;;;10.30;55.50;;;;;;5010282;28;20248;-55
2023/04/15 04:03:47;;;;;;;3.70;3.40;;;10.00;56.00;;;;;;5010407;28;20236;-52
2023/04/15 04:06:14;;;;;;;6.43;3.60;;;9.70;58.00;;;;;;5012311;28;20886;-53
2023/04/15 04:08:40;;;;;;;6.60;3.80;;;9.70;58.40;;;;;;5013176;28;20281;-51
2023/04/15 04:11:05;;;;;;;6.90;3.57;;;9.80;58.40;;;;;;5012009;28;20523;-53
2023/04/15 04:13:31;;;;;;;4.90;3.70;;;9.90;57.90;;;;;;5008957;28;20201;-53
2023/04/15 04:15:57;;;;;;;5.10;3.90;;;10.00;56.50;;;;;;5001791;28;20282;-52
2023/04/15 04:18:22;;;;;;;4.90;3.70;;;10.10;56.30;;;;;;5012894;28;20652;-53
2023/04/15 04:20:48;;;;;;;3.53;3.20;;;10.00;56.10;;;;;;5008411;28;20265;-52
2023/04/15 04:23:13;;;;;;;3.70;3.23;;;10.10;56.20;;;;;;5006760;28;20352;-51
2023/04/15 04:25:39;;;;;;;5.20;3.57;;;10.10;56.00;;;;;;5011681;28;20685;-54
2023/04/15 04:28:04;;;;;;;4.30;3.27;;;10.20;55.70;;;;;;5011845;28;20301;-52
2023/04/15 04:30:30;;;;;;;8.40;5.13;;;10.40;55.60;;;;;;5009754;28;20201;-51
2023/04/15 04:32:56;;;;;;;6.10;3.60;;;10.40;55.40;;;;;;4993148;28;20191;-54
2023/04/15 04:35:21;;;;;;;4.37;3.93;;;10.40;55.40;;;;;;5011107;28;20731;-51
2023/04/15 04:37:47;;;;;;;5.30;3.30;;;10.40;55.30;;;;;;5010894;28;20336;-55
2023/04/15 04:40:12;;;;;;;4.27;3.87;;;10.40;55.40;;;;;;4995223;28;20237;-52
2023/04/15 04:42:39;;;;;;;5.77;3.80;;;10.40;55.30;;;;;;5008277;28;20190;-51
2023/04/15 04:45:05;;;;;;;6.00;3.53;;;10.40;55.40;;;;;;5001734;28;20681;-51
2023/04/15 04:47:34;;;;;;;11.73;4.30;;;10.30;55.70;;;;;;5005100;28;20439;-58
2023/04/15 04:50:00;;;;;;;5.47;3.67;;;10.20;55.80;;;;;;5006981;28;20876;-53
2023/04/15 04:52:25;;;;;;;5.40;4.47;;;10.30;56.10;;;;;;4999279;28;20478;-55
2023/04/15 04:54:51;;;;;;;4.20;3.80;;;10.30;55.80;;;;;;5003196;28;20589;-53
2023/04/15 04:57:16;;;;;;;7.43;3.30;;;10.20;56.10;;;;;;5006097;28;20201;-51
2023/04/15 04:59:42;;;;;;;3.97;3.63;;;10.20;56.10;;;;;;5005511;28;20708;-50
2023/04/15 05:02:07;;;;;;;6.80;4.17;;;10.30;55.90;;;;;;5006967;28;20194;-53
2023/04/15 05:04:33;;;;;;;4.83;3.83;;;10.10;56.00;;;;;;5009384;28;20217;-52
2023/04/15 05:06:59;;;;;;;6.27;4.20;;;9.90;57.40;;;;;;5002580;28;20195;-54
2023/04/15 05:09:25;;;;;;;8.57;6.07;;;9.70;58.10;;;;;;5008729;28;20194;-54
2023/04/15 05:11:50;;;;;;;11.37;7.50;;;9.80;58.10;;;;;;5004542;28;21035;-54
2023/04/15 05:14:16;;;;;;;6.77;4.87;;;9.80;57.70;;;;;;5007390;28;20193;-52
2023/04/15 05:16:42;;;;;;;6.07;4.50;;;9.90;58.60;;;;;;5006945;28;20206;-54
2023/04/15 05:19:07;;;;;;;7.30;4.23;;;10.10;58.10;;;;;;5010230;28;20186;-54
2023/04/15 05:21:33;;;;;;;6.60;3.60;;;10.20;57.60;;;;;;5007654;28;20205;-50
2023/04/15 05:23:58;;;;;;;7.30;3.50;;;10.50;57.60;;;;;;5004706;28;20198;-54
2023/04/15 05:26:24;;;;;;;8.90;4.00;;;10.70;56.60;;;;;;5007754;28;20189;-55
2023/04/15 05:28:49;;;;;;;4.57;3.90;;;10.90;55.50;;;;;;5008386;28;20214;-55
2023/04/15 05:31:15;;;;;;;3.70;3.13;;;11.10;54.60;;;;;;5001893;28;20227;-55
2023/04/15 05:33:41;;;;;;;7.20;3.63;;;11.30;53.40;;;;;;4999725;28;20206;-54
2023/04/15 05:36:06;;;;;;;5.63;3.93;;;11.30;53.20;;;;;;5001618;28;20186;-50
2023/04/15 05:38:32;;;;;;;7.83;3.23;;;11.20;52.40;;;;;;5005384;28;20190;-50
2023/04/15 05:40:58;;;;;;;4.80;3.53;;;11.10;52.20;;;;;;5006365;28;20234;-51
2023/04/15 05:43:23;;;;;;;6.37;4.20;;;11.10;52.10;;;;;;5005033;28;20198;-53
2023/04/15 05:45:49;;;;;;;5.57;3.30;;;11.10;52.30;;;;;;5008729;28;20347;-53
2023/04/15 05:48:15;;;;;;;5.60;3.00;;;11.20;52.00;;;;;;5005690;28;20193;-53
2023/04/15 05:50:41;;;;;;;4.40;3.47;;;10.70;52.20;;;;;;5007330;28;20196;-54
2023/04/15 05:53:07;;;;;;;4.93;3.83;;;10.50;53.20;;;;;;5008475;28;20646;-53
2023/04/15 05:55:33;;;;;;;5.23;3.70;;;10.10;53.90;;;;;;5005631;28;20441;-54
2023/04/15 05:57:59;;;;;;;4.53;3.90;;;10.20;55.00;;;;;;5007545;28;20448;-55
2023/04/15 06:00:24;;;;;;;6.53;4.10;;;10.50;54.20;;;;;;5006209;28;20230;-55
2023/04/15 06:02:51;;;;;;;11.10;5.90;;;10.80;53.90;;;;;;4996699;28;20197;-52
2023/04/15 06:05:17;;;;;;;8.43;4.70;;;10.50;53.70;;;;;;5000986;28;20659;-55
2023/04/15 06:07:43;;;;;;;11.10;5.00;;;10.30;54.50;;;;;;5002762;28;20815;-55
2023/04/15 06:10:09;;;;;;;6.33;4.63;;;10.30;54.60;;;;;;5006309;28;20447;-53
2023/04/15 06:12:35;;;;;;;6.70;4.43;;;10.10;55.00;;;;;;5006119;28;20564;-55
2023/04/15 06:15:01;;;;;;;8.60;4.27;;;10.10;55.30;;;;;;5004736;28;20535;-55
2023/04/15 06:17:26;;;;;;;5.73;3.87;;;9.80;56.70;;;;;;5007036;28;20899;-55
2023/04/15 06:19:55;;;;;;;6.70;4.33;;;9.40;57.90;;;;;;5007946;28;20669;-55
2023/04/15 06:22:22;;;;;;;5.70;4.30;;;9.50;58.20;;;;;;5006591;28;20201;-55
2023/04/15 06:24:49;;;;;;;6.57;4.10;;;9.40;58.20;;;;;;5001386;28;20460;-54
2023/04/15 06:27:15;;;;;;;5.17;4.13;;;9.50;58.30;;;;;;5006247;28;20454;-54
2023/04/15 06:29:40;;;;;;;6.07;4.30;;;9.50;58.90;;;;;;5011363;28;20429;-54
2023/04/15 06:32:06;;;;;;;4.37;3.80;;;9.40;59.80;;;;;;5009573;28;20421;-55
2023/04/15 06:34:32;;;;;;;4.90;4.10;;;9.60;59.70;;;;;;5000670;28;20276;-56
2023/04/15 06:36:57;;;;;;;4.97;3.70;;;9.70;59.30;;;;;;5008245;28;20213;-54
2023/04/15 06:39:23;;;;;;;5.10;4.23;;;9.70;59.70;;;;;;5009295;28;20231;-54
2023/04/15 06:41:49;;;;;;;6.33;4.13;;;9.90;58.90;;;;;;5009196;28;20198;-55
2023/04/15 06:44:15;;;;;;;5.23;3.90;;;10.10;57.80;;;;;;5010782;28;20198;-55
2023/04/15 06:46:40;;;;;;;5.17;4.07;;;10.40;57.50;;;;;;5006851;28;20190;-55
2023/04/15 06:49:06;;;;;;;4.23;3.73;;;10.70;57.10;;;;;;5010574;28;20435;-55
2023/04/15 06:51:33;;;;;;;4.97;4.00;;;10.90;56.40;;;;;;5010416;28;20206;-52
2023/04/15 06:53:58;;;;;;;7.73;4.37;;;10.90;55.80;;;;;;5009494;28;20237;-55
2023/04/15 06:56:24;;;;;;;5.50;4.13;;;10.70;56.10;;;;;;5009713;28;20955;-55
2023/04/15 06:58:50;;;;;;;5.77;3.90;;;10.60;56.40;;;;;;5005773;28;20191;-54
2023/04/15 07:01:16;;;;;;;4.83;4.33;;;10.80;56.30;;;;;;5002680;28;20237;-55
2023/04/15 07:03:41;;;;;;;5.00;3.80;;;11.00;56.10;;;;;;5009895;28;20273;-54
2023/04/15 07:06:08;;;;;;;4.27;3.70;;;11.00;55.00;;;;;;5010177;28;20492;-55
2023/04/15 07:08:33;;;;;;;5.10;4.10;;;10.90;55.00;;;;;;5003916;28;20197;-53
2023/04/15 07:11:00;;;;;;;5.70;3.77;;;11.10;55.00;;;;;;5002834;28;20429;-55
2023/04/15 07:13:26;;;;;;;6.40;4.00;;;10.90;54.60;;;;;;5004135;28;20281;-56
2023/04/15 07:15:51;;;;;;;7.83;4.93;;;11.00;55.20;;;;;;5009263;28;20556;-55
2023/04/15 07:18:17;;;;;;;4.80;3.80;;;11.00;54.60;;;;;;5009055;28;21506;-53
2023/04/15 07:20:43;;;;;;;4.73;4.27;;;10.80;55.00;;;;;;5002523;28;20658;-55
2023/04/15 07:23:08;;;;;;;6.90;4.40;;;10.90;55.20;;;;;;5009326;28;20204;-56
2023/04/15 07:25:34;;;;;;;5.33;3.97;;;11.30;54.90;;;;;;5008911;28;20588;-55
2023/04/15 07:28:00;;;;;;;6.93;3.90;;;11.50;54.70;;;;;;5009095;28;20218;-53
2023/04/15 07:30:26;;;;;;;4.87;3.60;;;11.70;54.70;;;;;;5008963;28;20252;-54
2023/04/15 07:32:51;;;;;;;4.83;4.30;;;11.90;53.40;;;;;;5007690;28;20936;-55
2023/04/15 07:35:19;;;;;;;7.27;4.07;;;11.90;53.60;;;;;;5008735;28;20241;-56
2023/04/15 07:37:45;;;;;;;7.10;3.93;;;11.90;52.90;;;;;;4998373;28;20206;-55
2023/04/15 07:40:13;;;;;;;5.87;3.63;;;12.10;53.10;;;;;;5002571;28;20499;-53
2023/04/15 07:42:39;;;;;;;5.23;3.93;;;12.40;53.00;;;;;;5001408;28;20194;-54
2023/04/15 07:45:06;;;;;;;6.63;4.03;;;12.70;52.40;;;;;;5008743;28;20449;-54
2023/04/15 07:47:31;;;;;;;3.73;3.30;;;13.00;51.60;;;;;;5009725;28;20445;-53
2023/04/15 07:49:57;;;;;;;4.67;4.13;;;13.20;51.00;;;;;;5008427;28;20456;-52
2023/04/15 07:52:22;;;;;;;7.40;4.20;;;13.50;50.60;;;;;;5001944;28;20279;-55
2023/04/15 07:54:48;;;;;;;5.30;3.80;;;13.70;49.70;;;;;;5012617;28;20236;-56
2023/04/15 07:57:13;;;;;;;4.37;3.40;;;13.70;49.30;;;;;;5003040;28;20199;-55
2023/04/15 07:59:39;;;;;;;5.30;3.57;;;13.80;49.70;;;;;;5007926;28;20729;-54
2023/04/15 08:02:04;;;;;;;5.00;3.60;;;13.90;49.60;;;;;;5009006;28;20293;-54
2023/04/15 08:04:31;;;;;;;4.70;3.77;;;13.40;49.40;;;;;;5009376;28;20205;-54
2023/04/15 08:06:57;;;;;;;5.00;3.77;;;13.70;50.00;;;;;;5004376;28;20308;-56
2023/04/15 08:09:22;;;;;;;5.10;2.80;;;14.00;49.30;;;;;;5011756;28;20881;-54
2023/04/15 08:11:49;;;;;;;8.87;3.50;;;14.30;48.10;;;;;;5022211;28;20523;-55
2023/04/15 08:14:15;;;;;;;4.53;3.10;;;14.60;46.50;;;;;;5001980;28;20228;-55
2023/04/15 08:16:41;;;;;;;6.93;3.30;;;14.80;46.30;;;;;;5011808;28;20480;-55
2023/04/15 08:19:06;;;;;;;8.13;4.10;;;15.00;45.90;;;;;;5010001;28;20519;-56
2023/04/15 08:21:32;;;;;;;3.47;3.17;;;15.30;45.10;;;;;;5008966;28;20190;-55
2023/04/15 08:23:59;;;;;;;4.50;3.63;;;15.50;44.50;;;;;;5004362;28;20190;-55
2023/04/15 08:26:25;;;;;;;5.93;3.47;;;15.60;43.70;;;;;;5005203;28;20202;-55
2023/04/15 08:28:50;;;;;;;5.70;3.73;;;15.40;44.00;;;;;;5001177;28;20441;-54
2023/04/15 08:31:18;;;;;;;5.30;3.50;;;15.60;45.00;;;;;;5007474;28;20540;-55
2023/04/15 08:33:44;;;;;;;4.47;3.63;;;15.90;44.80;;;;;;5008331;28;20194;-56
2023/04/15 08:36:09;;;;;;;4.30;3.90;;;16.20;44.20;;;;;;5006927;28;20445;-56
2023/04/15 08:38:36;;;;;;;4.63;3.40;;;16.40;43.20;;;;;;5011028;28;20444;-55
2023/04/15 08:41:22;;;;;;;4.13;3.73;;;16.60;43.90;;;;;;5008290;28;20275;-55
2023/04/15 08:44:01;;;;;;;4.47;3.10;;;16.90;42.80;;;;;;5011097;28;20445;-55
2023/04/15 08:46:27;;;;;;;6.07;3.40;;;17.20;43.80;;;;;;5005702;28;20451;-57
2023/04/15 08:48:56;;;;;;;8.33;4.07;;;17.50;43.30;;;;;;5009598;28;20935;-56
2023/04/15 08:51:22;;;;;;;5.43;3.80;;;17.80;42.50;;;;;;5003959;28;20579;-54
2023/04/15 08:53:49;;;;;;;12.53;4.30;;;17.90;41.80;;;;;;5010788;28;20571;-55
2023/04/15 08:56:15;;;;;;;5.37;3.13;;;18.00;41.80;;;;;;5001576;28;22146;-51
2023/04/15 08:58:43;;;;;;;4.00;3.17;;;18.20;41.20;;;;;;5000142;28;20503;-53
2023/04/15 09:01:11;;;;;;;8.23;3.27;;;18.30;41.90;;;;;;5009194;28;20486;-50
2023/04/15 09:03:37;;;;;;;4.30;3.90;;;18.40;42.10;;;;;;5004505;28;20456;-53
2023/04/15 09:06:05;;;;;;;5.00;3.43;;;18.60;42.20;;;;;;5003814;28;20473;-52
2023/04/15 09:08:31;;;;;;;4.07;3.20;;;18.60;41.70;;;;;;4997446;28;20450;-52
2023/04/15 09:10:56;;;;;;;3.90;3.50;;;18.70;41.50;;;;;;5006463;28;20788;-53
2023/04/15 09:13:22;;;;;;;4.57;2.80;;;18.90;41.60;;;;;;4993342;28;21027;-55
2023/04/15 09:15:48;;;;;;;3.40;3.10;;;19.00;40.60;;;;;;5007526;28;20212;-53
2023/04/15 09:18:27;;;;;;;7.00;3.37;;;19.10;40.50;;;;;;5000099;28;20197;-52
2023/04/15 09:20:53;;;;;;;5.83;2.90;;;19.30;41.10;;;;;;5001514;28;20607;-53
2023/04/15 09:23:19;;;;;;;5.17;2.80;;;19.40;41.10;;;;;;5007613;28;20886;-54
2023/04/15 09:25:45;;;;;;;5.27;3.70;;;19.50;39.90;;;;;;5005863;28;20815;-53
2023/04/15 09:28:10;;;;;;;3.97;3.37;;;19.40;39.70;;;;;;5004979;28;20191;-55
2023/04/15 09:30:36;;;;;;;4.63;3.40;;;19.40;39.10;;;;;;5002176;28;20237;-53
2023/04/15 09:33:07;;;;;;;2.90;2.70;;;19.60;40.70;;;;;;5005314;28;20248;-54
2023/04/15 09:35:36;;;;;;;4.50;3.53;;;19.70;39.80;;;;;;5006505;28;20198;-55
2023/04/15 09:38:08;;;;;;;3.60;3.30;;;19.60;39.00;;;;;;5007579;28;21004;-51
2023/04/15 09:40:40;;;;;;;6.30;3.30;;;19.60;39.10;;;;;;5007332;28;20484;-53
2023/04/15 09:43:08;;;;;;;3.63;3.03;;;19.70;38.60;;;;;;5009871;28;20444;-55
2023/04/15 09:45:35;;;;;;;4.20;3.27;;;19.70;39.20;;;;;;5008276;28;20453;-54
2023/04/15 09:48:21;;;;;;;6.30;3.70;;;19.80;39.50;;;;;;5005988;28;20482;-54
2023/04/15 09:50:48;;;;;;;5.90;4.00;;;19.80;40.20;;;;;;5000433;28;20481;-54
2023/04/15 09:53:20;;;;;;;4.57;3.63;;;19.90;40.20;;;;;;5003268;28;20968;-51
2023/04/15 09:55:49;;;;;;;4.40;3.63;;;20.00;39.50;;;;;;5006093;28;20472;-53
2023/04/15 09:58:23;;;;;;;5.60;2.80;;;20.10;39.40;;;;;;5007030;28;20584;-52
2023/04/15 10:00:50;;;;;;;6.53;3.90;;;20.00;40.90;;;;;;5010209;28;20507;-52
2023/04/15 10:03:20;;;;;;;6.87;3.73;;;20.10;40.80;;;;;;5007893;28;20816;-55
2023/04/15 10:05:48;;;;;;;4.20;3.83;;;20.10;41.20;;;;;;5007073;28;20506;-54
2023/04/15 10:08:16;;;;;;;4.10;3.67;;;20.30;40.20;;;;;;5009746;28;20444;-54
2023/04/15 10:10:42;;;;;;;4.40;4.00;;;20.50;41.30;;;;;;5005984;28;21010;-54
2023/04/15 10:13:09;;;;;;;4.97;3.30;;;20.80;39.80;;;;;;5007706;28;20527;-55
2023/04/15 10:15:35;;;;;;;4.70;3.47;;;20.90;39.00;;;;;;5006189;28;20670;-55
2023/04/15 10:18:04;;;;;;;5.27;3.30;;;21.00;37.90;;;;;;5004407;28;20448;-55
2023/04/15 10:20:30;;;;;;;3.27;2.97;;;21.10;37.80;;;;;;4999890;28;20502;-56
2023/04/15 10:22:56;;;;;;;4.43;3.30;;;21.10;36.70;;;;;;5009389;28;20452;-54
2023/04/15 10:25:24;;;;;;;3.37;3.07;;;21.10;36.50;;;;;;5008297;28;20541;-52
2023/04/15 10:27:51;;;;;;;5.90;3.30;;;21.00;36.40;;;;;;5006990;28;20519;-53
2023/04/15 10:30:17;;;;;;;4.63;3.00;;;21.10;37.00;;;;;;5004264;28;20452;-55
2023/04/15 10:32:44;;;;;;;3.97;3.27;;;21.20;36.70;;;;;;5004694;28;20546;-54
2023/04/15 10:35:10;;;;;;;5.17;3.63;;;21.10;37.50;;;;;;5008865;28;20817;-58
2023/04/15 10:37:37;;;;;;;5.00;3.30;;;21.20;37.50;;;;;;5008067;28;20840;-57
2023/04/15 10:40:32;;;;;;;4.73;3.73;;;21.40;38.30;;;;;;5007961;28;20568;-57
2023/04/15 10:43:00;;;;;;;7.17;3.63;;;21.40;37.30;;;;;;4994531;28;20544;-57
2023/04/15 10:45:35;;;;;;;6.57;3.87;;;21.60;37.90;;;;;;5008431;28;20846;-58
2023/04/15 10:48:03;;;;;;;5.40;3.93;;;21.80;37.70;;;;;;5009548;28;20452;-57
2023/04/15 10:50:31;;;;;;;4.27;3.87;;;21.90;38.00;;;;;;5007776;28;20567;-57
2023/04/15 10:52:57;;;;;;;5.33;4.37;;;22.20;37.20;;;;;;5006048;28;20520;-58
2023/04/15 10:55:30;;;;;;;5.10;3.83;;;22.30;36.80;;;;;;5006917;28;20524;-57
2023/04/15 10:58:00;;;;;;;4.10;3.70;;;22.40;37.00;;;;;;5008813;28;21704;-57
2023/04/15 11:00:28;;;;;;;6.60;3.60;;;22.50;36.30;;;;;;5009123;28;20508;-58
2023/04/15 11:02:56;;;;;;;3.67;3.27;;;22.40;34.90;;;;;;5007041;28;20475;-57
2023/04/15 11:05:42;;;;;;;5.23;3.50;;;22.40;35.70;;;;;;5008361;28;20535;-56
2023/04/15 11:08:09;;;;;;;4.57;3.17;;;22.40;35.00;;;;;;5000712;28;20449;-57
2023/04/15 11:10:34;;;;;;;3.80;2.83;;;22.20;34.70;;;;;;5008451;28;20499;-57
2023/04/15 11:13:15;;;;;;;3.83;2.90;;;22.00;35.30;;;;;;5002824;28;20846;-57
2023/04/15 11:15:46;;;;;;;3.80;3.40;;;21.90;35.30;;;;;;5006347;28;20197;-57
2023/04/15 11:18:23;;;;;;;4.97;3.20;;;21.70;36.40;;;;;;5008903;28;20429;-57
2023/04/15 11:20:50;;;;;;;5.57;2.97;;;21.50;35.00;;;;;;5008062;28;20498;-57
2023/04/15 11:23:17;;;;;;;3.10;2.90;;;21.70;35.90;;;;;;5006801;28;20524;-57
2023/04/15 11:25:43;;;;;;;3.30;3.07;;;21.80;34.50;;;;;;5005277;28;20486;-57
2023/04/15 11:28:10;;;;;;;3.17;2.93;;;21.70;35.60;;;;;;5016168;28;21018;-57
2023/04/15 11:30:37;;;;;;;5.33;4.00;;;21.50;36.10;;;;;;5007080;28;20200;-57
2023/04/15 11:33:09;;;;;;;3.80;3.17;;;21.40;36.20;;;;;;5000005;28;20444;-57
2023/04/15 11:35:35;;;;;;;4.00;3.50;;;21.70;35.80;;;;;;5004138;28;20463;-57
2023/04/15 11:38:07;;;;;;;4.40;4.00;;;21.70;35.80;;;;;;5006893;28;20469;-58
2023/04/15 11:40:35;;;;;;;6.07;4.40;;;21.80;35.30;;;;;;5001329;28;20499;-56
2023/04/15 11:43:14;;;;;;;5.90;3.63;;;21.80;34.60;;;;;;4997915;28;20476;-57
2023/04/15 11:45:58;;;;;;;4.33;3.97;;;21.70;35.20;;;;;;5008362;28;20452;-56
2023/04/15 11:48:25;;;;;;;6.17;3.20;;;21.30;36.00;;;;;;5008964;28;20440;-57
2023/04/15 11:50:56;;;;;;;4.73;3.17;;;21.30;37.00;;;;;;5005960;28;20444;-57
2023/04/15 11:53:23;;;;;;;4.03;3.50;;;21.50;37.00;;;;;;4999868;28;20484;-56
2023/04/15 11:55:50;;;;;;;3.93;3.13;;;21.60;36.40;;;;;;5007715;28;20535;-54
2023/04/15 11:58:22;;;;;;;4.80;3.57;;;21.80;37.60;;;;;;5012649;28;20441;-52
2023/04/15 12:00:57;;;;;;;3.83;3.47;;;22.00;37.00;;;;;;5009466;28;20528;-54
2023/04/15 12:03:42;;;;;;;5.40;3.77;;;22.10;36.70;;;;;;5006753;28;20452;-51
2023/04/15 12:06:22;;;;;;;3.70;3.40;;;21.90;36.90;;;;;;5011022;28;22089;-55
2023/04/15 12:08:59;;;;;;;4.37;3.93;;;21.80;36.90;;;;;;5001677;28;20481;-53
2023/04/15 12:11:37;;;;;;;6.27;3.17;;;21.60;37.50;;;;;;5007739;28;20494;-54
2023/04/15 12:14:06;;;;;;;2.43;2.20;;;21.40;36.90;;;;;;5008177;28;20456;-51
2023/04/15 12:16:38;;;;;;;2.33;2.10;;;21.30;34.60;;;;;;5011739;28;20460;-54
2023/04/15 12:19:10;;;;;;;3.13;1.90;;;21.20;33.50;;;;;;5009364;28;20536;-55
2023/04/15 12:21:38;;;;;;;2.10;1.90;;;21.10;33.40;;;;;;5007117;28;20461;-51
2023/04/15 12:24:07;;;;;;;4.70;2.77;;;21.20;33.60;;;;;;5006731;28;20468;-50
2023/04/15 12:26:42;;;;;;;3.43;2.67;;;21.20;34.20;;;;;;5004973;28;20448;-51
2023/04/15 12:29:09;;;;;;;3.33;2.40;;;21.10;34.60;;;;;;5000389;28;20489;-52
2023/04/15 12:31:35;;;;;;;5.73;2.77;;;20.90;35.30;;;;;;5004590;28;20924;-55
2023/04/15 12:34:02;;;;;;;3.97;3.13;;;20.50;35.80;;;;;;5007349;28;20503;-55
2023/04/15 12:36:30;;;;;;;4.53;3.63;;;20.00;37.10;;;;;;5002247;28;20808;-52
2023/04/15 12:38:56;;;;;;;4.00;2.33;;;19.90;38.60;;;;;;5005445;28;20966;-51
2023/04/15 12:41:29;;;;;;;3.47;2.67;;;19.70;38.40;;;;;;5007963;28;20580;-54
2023/04/15 12:44:12;;;;;;;4.87;2.77;;;19.60;37.20;;;;;;5011877;28;20216;-54
2023/04/15 12:46:38;;;;;;;5.00;3.20;;;19.50;37.50;;;;;;5006894;28;20441;-53